Latest Weather Observations for Merriwa

IDN60801

Issued at 11:35 pm EDT Friday 24 October 2014 (issued every 30 minutes, with the page automatically refreshed every 10 minutes)

About weather observations | Map of weather stations | Latest weather observations for NSW | Other Formats
Station Details ID: 061287 Name: MERRIWA (ROSCOMMON) Lat: -32.19 Lon: 150.17 Height: 375.0 m
Data from the previous 72 hours. | See also: Recent months at Merriwa
Date/Time
EDT
Temp
°C
App
Temp
°C
Dew
Point
Rel
Hum
%
Delta-T
°C
Wind Press
QNH
hPa
Press
MSL
hPa
Rain
since 9 am
mm
Dir
 
Spd
km/h
Gust
km/h
Spd
kts
Gust
kts
24/11:30pm 21.2 19.7 11.8 55 5.3 WNW 11 17 6 9 1015.4 1014.8 0.4
24/11:00pm 24.2 21.0 10.1 41 7.9 N 17 20 9 11 1015.1 1014.5 0.4
24/10:30pm 24.0 20.6 12.6 49 6.7 N 22 32 12 17 1015.7 1015.1 0.4
24/10:00pm 20.4 20.2 14.7 70 3.4 SSE 9 13 5 7 1015.9 1015.3 0.4
24/09:56pm 20.6 20.0 14.7 69 3.5 S 11 19 6 10 1016.1 1015.5 0.4
24/09:40pm 25.7 19.2 10.3 38 8.7 SW 35 54 19 29 1016.6 1016.0 0.0
24/09:30pm 28.0 23.6 8.8 30 10.7 WSW 22 32 12 17 1016.0 1015.4 0.0
24/09:03pm 26.5 21.3 10.2 36 9.2 WNW 28 46 15 25 1015.6 1015.0 0.0
24/09:00pm 28.1 23.1 9.4 31 10.5 WNW 26 35 14 19 1015.5 1014.9 0.0
24/08:30pm 26.4 22.0 8.8 33 9.7 N 22 26 12 14 1013.6 1013.0 0.0
24/08:00pm 26.5 22.5 8.9 33 9.8 NNE 20 24 11 13 1013.5 1012.9 0.0
24/07:30pm 28.0 24.1 9.3 31 10.5 N 20 24 11 13 1013.5 1012.9 0.0
24/07:00pm 28.9 25.2 9.6 30 11.0 N 19 28 10 15 1013.5 1012.9 0.0
24/06:30pm 30.0 26.0 9.0 27 11.9 N 20 28 11 15 1013.5 1012.9 0.0
24/06:00pm 31.3 25.7 8.9 25 12.7 N 28 39 15 21 1013.4 1012.8 0.0
24/05:30pm 31.2 27.5 9.4 26 12.5 N 19 26 10 14 1013.6 1013.0 0.0
24/05:00pm 32.8 28.2 9.6 24 13.4 N 24 35 13 19 1013.8 1013.2 0.0
24/04:30pm 31.7 27.0 9.3 25 12.8 N 24 30 13 16 1014.1 1013.5 0.0
24/04:00pm 33.7 29.1 9.7 23 13.9 NNW 24 39 13 21 1014.6 1013.9 0.0
24/03:30pm 34.1 30.8 9.4 22 14.3 NNW 17 28 9 15 1015.1 1014.5 0.0
24/03:00pm 32.4 27.8 8.0 22 13.7 NNW 22 37 12 20 1015.6 1015.0 0.0
24/02:30pm 33.4 28.6 8.8 22 14.1 NNW 24 37 13 20 1016.1 1015.5 0.0
24/02:00pm 32.5 28.4 8.0 22 13.8 NNE 19 28 10 15 1016.5 1015.9 0.0
24/01:30pm 31.1 27.7 10.4 28 12.0 NNE 19 32 10 17 1017.4 1016.8 0.0
24/01:00pm 31.1 29.1 11.5 30 11.6 NE 13 24 7 13 1018.1 1017.5 0.0
24/12:30pm 29.8 27.9 11.8 33 10.6 NE 13 24 7 13 1018.7 1018.1 0.0
24/12:00pm 28.7 26.8 11.7 35 10.0 NE 13 22 7 12 1019.5 1019.0 0.0
24/11:30am 26.9 25.2 12.5 40 8.5 ENE 13 19 7 10 1020.4 1019.8 0.0
24/11:00am 25.6 24.3 13.8 48 7.1 ENE 13 20 7 11 1021.1 1020.5 0.0
24/10:30am 22.9 21.6 13.7 56 5.4 ESE 13 19 7 10 1021.6 1021.1 0.0
24/10:00am 21.7 21.4 14.4 63 4.3 E 9 17 5 9 1021.9 1021.4 0.0
24/09:30am 19.9 17.7 13.4 66 3.8 SE 17 24 9 13 1022.0 1021.5 0.0
24/09:00am 20.6 19.5 14.3 67 3.7 SE 13 17 7 9 1022.0 1021.5 0.4
24/08:30am 20.5 19.3 13.9 66 3.9 ENE 13 19 7 10 1021.2 1020.6 0.4
24/08:00am 20.1 20.5 14.7 71 3.2 ENE 6 9 3 5 1021.3 1020.7 0.4
24/07:30am 17.2 17.9 14.5 84 1.6 NW 4 7 2 4 1021.5 1020.9 0.4
24/07:00am 15.5 15.7 14.7 95 0.5 N 7 11 4 6 1021.5 1020.9 0.4
24/06:30am 15.9 15.4 13.9 88 1.1 W 9 13 5 7 1021.6 1021.1 0.4
24/06:00am 16.3 14.3 14.0 86 1.3 E 17 20 9 11 1019.8 1019.3 0.4
24/05:30am 14.1 10.9 12.0 87 1.2 NE 20 20 11 11 1020.2 1019.6 0.0
24/05:00am 16.2 13.8 11.4 73 2.6 ESE 15 17 8 9 1020.8 1020.2 0.0
24/04:30am 15.5 13.1 11.5 77 2.2 SW 15 20 8 11 1021.4 1020.8 0.0
24/04:00am 13.7 12.7 11.0 84 1.4 W 7 9 4 5 1020.1 1019.5 0.0
24/03:30am 12.0 11.8 9.2 83 1.4 CALM 0 0 0 0 1019.7 1019.2 0.0
24/03:00am 12.1 12.0 9.3 83 1.4 CALM 0 0 0 0 1019.5 1019.0 0.0
24/02:30am 12.3 11.5 9.5 83 1.4 S 4 7 2 4 1019.4 1018.9 0.0
24/02:00am 13.7 12.1 10.1 79 1.9 SSE 9 15 5 8 1019.7 1019.2 0.0
24/01:30am 14.9 13.3 10.1 73 2.6 N 9 11 5 6 1019.8 1019.3 0.0
24/01:00am 13.6 11.7 8.9 73 2.4 NNE 9 11 5 6 1020.2 1019.6 0.0
24/12:30am 15.0 14.6 9.8 71 2.8 ESE 2 7 1 4 1020.8 1020.2 0.0
24/12:00am 15.0 13.8 9.4 69 2.9 SE 6 9 3 5 1020.9 1020.3 0.0
 
Date/Time
EDT
Temp
°C
App
Temp
°C
Dew
Point
Rel
Hum
%
Delta-T
°C
Wind Press
QNH
hPa
Press
MSL
hPa
Rain
since 9 am
mm
Dir
 
Spd
km/h
Gust
km/h
Spd
kts
Gust
kts
23/11:30pm 15.8 15.8 9.9 68 3.1 CALM 0 0 0 0 1020.9 1020.3 0.0
23/11:00pm 15.8 14.6 9.5 66 3.3 N 6 9 3 5 1020.7 1020.1 0.0
23/10:30pm 17.0 15.7 10.1 64 3.7 ESE 7 11 4 6 1020.6 1020.0 0.0
23/10:00pm 17.5 15.2 10.4 63 3.8 SSE 13 17 7 9 1020.5 1019.9 0.0
23/09:30pm 17.8 16.0 9.4 58 4.5 ESE 9 13 5 7 1020.1 1019.5 0.0
23/09:00pm 19.2 17.8 9.7 54 5.1 ENE 7 11 4 6 1019.6 1019.1 0.0
23/08:30pm 21.3 18.9 10.2 49 6.1 ENE 13 19 7 10 1019.1 1018.5 0.0
23/08:00pm 21.5 19.3 10.9 51 5.9 ENE 13 17 7 9 1018.9 1018.3 0.0
23/07:30pm 23.3 21.1 9.3 41 7.7 E 11 17 6 9 1018.4 1017.8 0.0
23/07:00pm 24.5 20.7 8.9 37 8.5 SE 19 30 10 16 1018.0 1017.4 0.0
23/06:30pm 25.6 20.8 9.0 35 9.2 SE 24 35 13 19 1017.3 1016.7 0.0
23/06:00pm 28.2 21.2 6.9 26 11.5 SE 33 43 18 23 1016.5 1015.9 0.0
23/05:30pm 31.0 29.1 7.5 23 13.0 E 7 11 4 6 1015.9 1015.3 0.0
23/05:00pm 29.9 27.7 7.7 25 12.3 ENE 9 15 5 8 1015.9 1015.3 0.0
23/04:30pm 30.3 27.8 8.1 25 12.4 E 11 17 6 9 1016.0 1015.4 0.0
23/04:00pm 28.9 25.0 8.6 28 11.3 E 19 30 10 16 1016.0 1015.4 0.0
23/03:30pm 31.4 26.8 9.6 26 12.5 SE 24 32 13 17 1016.1 1015.5 0.0
23/03:00pm 30.1 28.1 8.5 26 12.1 WNW 9 19 5 10 1016.5 1015.9 0.0
23/02:30pm 29.5 27.3 8.0 26 11.9 SW 9 15 5 8 1017.1 1016.6 0.0
23/02:00pm 29.5 27.3 8.0 26 11.9 SW 9 15 5 8 1017.6 1017.0 0.0
23/01:30pm 29.1 25.7 7.6 26 11.8 SSW 15 20 8 11 1018.1 1017.5 0.0
23/01:00pm 31.5 28.7 8.5 24 13.0 WNW 13 20 7 11 1018.4 1017.8 0.0
23/12:30pm 30.6 27.1 8.9 26 12.3 SW 17 24 9 13 1018.9 1018.3 0.0
23/12:00pm 29.8 26.2 8.2 26 12.0 SW 17 24 9 13 1019.3 1018.8 0.0
23/11:30am 28.9 27.0 9.1 29 11.2 W 9 20 5 11 1019.6 1019.1 0.0
23/11:00am 28.0 25.6 10.2 33 10.1 SSW 13 20 7 11 1020.3 1019.7 0.0
23/10:30am 27.1 24.3 9.9 34 9.7 W 15 24 8 13 1020.5 1019.9 0.0
23/10:00am 25.2 22.3 9.5 37 8.7 W 15 20 8 11 1020.7 1020.1 0.0
23/09:30am 23.9 22.3 10.2 42 7.7 NW 9 13 5 7 1020.4 1019.8 0.0
23/09:00am 21.2 19.9 10.1 49 6.1 W 7 13 4 7 1020.6 1020.0 0.0
23/08:30am 19.1 17.8 9.9 55 5.0 WSW 7 11 4 6 1020.5 1019.9 0.0
23/08:00am 16.8 15.6 10.4 66 3.5 WSW 7 11 4 6 1020.5 1019.9 0.0
23/07:30am 14.6 14.6 9.8 73 2.5 CALM 0 0 0 0 1020.3 1019.7 0.0
23/07:00am 11.5 10.4 9.8 89 0.9 W 6 7 3 4 1019.9 1019.4 0.0
23/06:30am 9.7 7.9 7.3 85 1.2 WSW 6 9 3 5 1020.1 1019.5 0.0
23/06:00am 10.4 8.8 8.2 86 1.1 SSW 6 7 3 4 1019.7 1019.2 0.0
23/05:30am 10.4 10.0 8.2 86 1.1 CALM 0 0 0 0 1019.5 1019.0 0.0
23/05:00am 10.2 9.7 7.8 85 1.2 CALM 0 0 0 0 1019.3 1018.8 0.0
23/04:30am 10.2 9.5 7.1 81 1.5 CALM 0 0 0 0 1019.3 1018.8 0.0
23/04:00am 10.9 10.4 7.8 81 1.5 CALM 0 0 0 0 1019.3 1018.8 0.0
23/03:30am 11.2 9.9 7.7 79 1.7 W 4 7 2 4 1019.5 1019.0 0.0
23/03:00am 11.7 11.2 8.0 78 1.8 CALM 0 0 0 0 1019.7 1019.2 0.0
23/02:30am 12.1 11.6 7.8 75 2.1 CALM 0 0 0 0 1019.8 1019.3 0.0
23/02:00am 12.1 11.6 7.8 75 2.1 CALM 0 0 0 0 1020.1 1019.5 0.0
23/01:30am 12.4 11.9 7.9 74 2.3 CALM 0 0 0 0 1020.3 1019.7 0.0
23/01:00am 12.7 12.2 7.8 72 2.4 CALM 0 0 0 0 1020.3 1019.7 0.0
23/12:30am 13.3 11.7 8.2 71 2.6 S 6 7 3 4 1020.4 1019.8 0.0
23/12:00am 13.3 12.9 8.4 72 2.5 CALM 0 0 0 0 1020.7 1020.1 0.0
 
Date/Time
EDT
Temp
°C
App
Temp
°C
Dew
Point
Rel
Hum
%
Delta-T
°C
Wind Press
QNH
hPa
Press
MSL
hPa
Rain
since 9 am
mm
Dir
 
Spd
km/h
Gust
km/h
Spd
kts
Gust
kts
22/11:30pm 13.4 11.7 7.6 68 2.9 S 6 6 3 3 1020.8 1020.2 0.0
22/11:00pm 15.3 13.7 8.8 65 3.4 S 7 9 4 5 1020.7 1020.1 0.0
22/10:30pm 16.0 14.4 8.7 62 3.8 S 7 9 4 5 1020.7 1020.1 0.0
22/10:00pm 15.1 12.2 8.1 63 3.6 SE 13 15 7 8 1020.7 1020.1 0.0
22/09:30pm 17.0 14.9 8.4 57 4.5 E 9 11 5 6 1020.8 1020.2 0.0
22/09:00pm 17.7 15.9 8.0 53 5.0 E 7 11 4 6 1020.6 1020.0 0.0
22/08:30pm 19.7 17.6 8.1 47 6.1 ENE 9 13 5 7 1020.4 1019.8 0.0
22/08:00pm 21.0 18.2 8.6 45 6.6 ENE 13 20 7 11 1020.1 1019.5 0.0
22/07:30pm 21.6 19.5 8.1 42 7.2 E 9 13 5 7 1019.7 1019.2 0.0
22/07:00pm 23.9 21.4 8.3 37 8.4 ENE 11 15 6 8 1019.6 1019.1 0.0
22/06:30pm 26.2 24.6 8.7 33 9.7 ENE 7 13 4 7 1019.5 1019.0 0.0
22/06:00pm 27.0 24.3 8.9 32 10.0 NNE 13 15 7 8 1019.6 1019.1 0.0
22/05:30pm 27.3 25.3 8.7 31 10.3 ESE 9 13 5 7 1019.8 1019.3 0.0
22/05:00pm 27.5 25.9 8.9 31 10.3 NW 7 15 4 8 1019.9 1019.4 0.0
22/04:30pm 28.1 26.7 9.4 31 10.5 W 7 15 4 8 1020.2 1019.6 0.0
22/04:00pm 27.5 26.1 8.9 31 10.3 SW 6 11 3 6 1020.6 1020.0 0.0
22/03:30pm 27.3 25.5 9.6 33 10.0 SSE 9 13 5 7 1021.0 1020.4 0.0
22/03:00pm 27.0 25.6 9.4 33 9.8 ENE 7 15 4 8 1021.7 1021.2 0.0
22/02:30pm 26.4 24.6 9.3 34 9.5 E 9 19 5 10 1022.2 1021.7 0.0
22/02:00pm 25.2 23.0 9.5 37 8.7 SSW 11 19 6 10 1022.8 1022.3 0.0
22/01:30pm 23.9 21.8 8.3 37 8.4 W 9 19 5 10 1023.5 1022.9 0.0
22/01:00pm 22.8 20.6 7.8 38 8.0 ESE 9 15 5 8 1024.0 1023.5 0.0
22/12:30pm 22.2 20.4 8.0 40 7.6 NNE 7 13 4 7 1024.7 1024.2 0.0
22/12:00pm 21.4 19.3 8.3 43 7.0 SE 9 20 5 11 1025.2 1024.7 0.0
22/11:30am 20.2 18.0 7.9 45 6.5 S 9 13 5 7 1025.9 1025.3 0.0
22/11:00am 18.4 15.8 7.8 50 5.5 SE 11 17 6 9 1026.5 1026.0 0.0
22/10:30am 17.9 15.9 8.5 54 4.9 ESE 9 17 5 9 1026.9 1026.4 0.0
22/10:00am 16.4 13.8 7.6 56 4.5 ESE 11 20 6 11 1027.2 1026.7 0.0
22/09:30am 15.9 13.0 8.2 60 4.0 E 13 20 7 11 1027.2 1026.7 0.0
22/09:00am 14.4 11.4 7.7 64 3.4 ESE 13 20 7 11 1027.3 1026.8 0.0
22/08:30am 13.5 10.6 8.1 70 2.7 E 13 17 7 9 1027.4 1026.9 0.0
22/08:00am 12.4 10.0 8.7 78 1.9 ESE 11 17 6 9 1027.3 1026.8 0.0
22/07:30am 9.7 9.6 9.4 98 0.2 CALM 0 0 0 0 1027.5 1027.0 0.0
22/07:00am 6.3 4.1 6.0 98 0.1 ESE 7 9 4 5 1027.3 1026.8 0.0
22/06:30am 4.9 3.7 4.6 98 0.1 CALM 0 0 0 0 1027.0 1026.5 0.0
22/06:00am 5.3 4.2 5.0 98 0.1 CALM 0 0 0 0 1026.8 1026.3 0.0
22/05:30am 6.0 3.6 5.1 94 0.4 ESE 7 9 4 5 1026.6 1026.1 0.0
22/05:00am 6.9 4.3 6.0 94 0.4 ESE 9 11 5 6 1026.7 1026.2 0.0
22/04:30am 7.3 4.8 6.6 95 0.3 ESE 9 13 5 7 1026.8 1026.3 0.0
22/04:00am 7.7 4.5 6.8 94 0.4 SE 13 17 7 9 1027.0 1026.5 0.0
22/03:30am 7.8 5.3 6.6 92 0.6 SE 9 13 5 7 1027.2 1026.7 0.0
22/03:00am 8.1 5.3 6.9 92 0.6 SE 11 13 6 7 1027.5 1027.0 0.0
22/02:30am 8.0 5.4 6.3 89 0.8 ESE 9 9 5 5 1027.8 1027.3 0.0
22/02:00am 8.9 6.5 6.9 87 0.9 SE 9 11 5 6 1028.1 1027.6 0.0
22/01:30am 9.1 6.2 6.5 84 1.2 SE 11 13 6 7 1028.7 1028.2 0.0
22/01:00am 10.3 7.1 7.0 80 1.6 SE 13 17 7 9 1029.2 1028.7 0.0
22/12:30am 10.5 7.0 7.0 79 1.7 SE 15 20 8 11 1029.6 1029.1 0.0
22/12:00am 10.9 7.4 7.4 79 1.7 SE 15 20 8 11 1029.9 1029.4 0.0

Other Formats:

Comma delimited format used in spreadsheet applications
http://www.bom.gov.au/fwo/IDN60801/IDN60801.95754.axf

JavaScript Object Notation format (JSON) in row-major order
http://www.bom.gov.au/fwo/IDN60801/IDN60801.95754.json